Pagina principale
METAR-TAF:

METAR-TAF

Aeroporti :

Aigen im Ennstal, Austria

latitudine: 47-32N, longitudine: 014-08E, altezza: 638 m

METAR: mancante

Ora: 08:44 (06:44 UTC)

Previsione

Il bollettino è stato emesso 1 ora e 29 minuti fa, alle 05:15 UTC
Previsione valida dal 26 alle 06 UTC al 26 alle 15 UTC
Vento 3 kt da direzioni variabili
Visibilità: 9000 m
Poco nuvoloso ad un'altezza di 3000 ft
Nuvoloso ad un'altezza di 4500 ft
pioggia debole
Temporaneamente
dal 26 alle 08 UTC al 26 alle 15 UTC
Vento 6 kt da ovest/sud-ovest
Visibilità: 4000 m
Poco nuvoloso ad un'altezza di 1000 ft
Nubi sparse ad un'altezza di 2500 ft
pioggia

TAF: LOXA 260515Z 2606/2615 VRB03KT 9000 -RA FEW030 BKN045 TEMPO 2608/2615 24006KT 4000 RA FEW010 SCT025 0VC030

Osservazioni e previsioni meteorologiche di più di 4000 aeroporti (messaggi METAR e TAF).

Le stazioni disponibili sono rappresentate dai dischi gialli e rossi sulla carta.

Puntare il mouse per vedere il nome della stazione.

Clicca sopra per visualizzare le osservazioni e previsioni meteorologiche.

Per cambiare la mappa : fare clic sui pulsanti verdi con una croce nera per ingrandire, il pulsante verde con un trattino per diminuire, o sulla freccia verde per le mappe adiacenti.


METAR-TAF: